Hortensia, Argentina
Current Conditions -  °F | °C
As of 6:00 PM on Saturday 25 Oct 2014 (Local Time) from SAEZ Reporting Station
Clear Clear  
Wind Chill: 84°   Ceiling: Unl
Heat Index: 85°   Visibility: 6mi
Dew Point: 63°   Wind: 10mph
Humidity: 48%   Direction: 70°ENE
Pressure: 29.85"   Gusts: NA
Location:  35.93°S, 61.28°W
Report Text: SAEZ 252100Z 07009KT CAVOK 29/17 Q1011
Loading
Personal Weather Stations






























Interactive Weather Map
Tropical Storm Tracking
New forecast layout! Learn more

10-Day Weather Forecast

Advertisements
Track Severe Weather on mobile